| time (UTC) | temp F | wind direction | speed knots | gust knots | rain 1hr in | rain 24hr in | rain mn in | humidity % | barometer mb |
| 20260507060058 | 51 | 170 | 0.0 | 0.0 | 0.00 | 0.00 | 0.23 | 90 | 1005.1 |
| 20260507054604 | 52 | 72 | 0.0 | 0.0 | 0.00 | 0.00 | 0.23 | 91 | 1005.0 |
| 20260507053030 | 52 | 72 | 0.0 | 0.0 | 0.00 | 0.00 | 0.23 | 92 | 1005.7 |
| 20260507051526 | 52 | 353 | 0.0 | 0.0 | 0.00 | 0.00 | 0.23 | 93 | 1005.4 |
| 20260507050008 | 53 | 1 | 0.0 | 0.0 | 0.00 | 0.00 | 0.23 | 92 | 1005.6 |
| 20260507044501 | 53 | 327 | 0.0 | 0.0 | 0.00 | 0.00 | 0.23 | 92 | 1005.2 |
| 20260507043039 | 54 | 34 | 0.0 | 0.0 | 0.00 | 0.00 | 0.23 | 92 | 1005.2 |
| 20260507041549 | 54 | 15 | 0.0 | 0.0 | 0.00 | 0.00 | 0.22 | 92 | 1005.2 |
| 20260507040013 | 54 | 15 | 0.0 | 0.0 | 0.00 | 0.00 | 0.22 | 91 | 1005.2 |
| 20260507034513 | 55 | 283 | 0.9 | 0.0 | 0.00 | 0.00 | 0.22 | 91 | 1005.3 |
| 20260507033047 | 56 | 146 | 0.0 | 0.0 | 0.00 | 0.00 | 0.22 | 92 | 1004.9 |
| 20260507031543 | 57 | 313 | 0.0 | 0.0 | 0.00 | 0.00 | 0.22 | 93 | 1004.4 |
| 20260507030021 | 57 | 4 | 0.9 | 0.0 | 0.00 | 0.00 | 0.21 | 92 | 1004.0 |
| 20260507024517 | 58 | 37 | 0.9 | 0.0 | 0.00 | 0.00 | 0.21 | 94 | 1004.1 |
| 20260507023111 | 59 | 190 | 0.9 | 0.0 | 0.00 | 0.00 | 0.21 | 94 | 1004.0 |
| 20260507021554 | 59 | 177 | 0.9 | 0.0 | 0.00 | 0.00 | 0.21 | 95 | 1004.1 |
| 20260507020029 | 58 | 220 | 0.0 | 0.0 | 0.00 | 0.00 | 0.21 | 95 | 1003.7 |
| 20260507014545 | 58 | 185 | 0.0 | 0.0 | 0.00 | 0.00 | 0.21 | 95 | 1003.8 |
| 20260507013013 | 58 | 180 | 0.0 | 0.0 | 0.00 | 0.00 | 0.21 | 95 | 1003.7 |
| 20260507011600 | 58 | 269 | 0.0 | 0.0 | 0.00 | 0.00 | 0.21 | 94 | 1003.7 |
| 20260507010038 | 58 | 123 | 0.9 | 0.0 | 0.00 | 0.00 | 0.21 | 94 | 1003.7 |
| 20260507004533 | 58 | 195 | 1.7 | 0.0 | 0.00 | 0.00 | 0.21 | 94 | 1003.7 |
| 20260507003012 | 58 | 225 | 1.7 | 0.0 | 0.00 | 0.00 | 0.21 | 94 | 1003.6 |
| 20260507001508 | 58 | 171 | 1.7 | 0.0 | 0.00 | 0.00 | 0.21 | 94 | 1003.4 |
| 20260507000048 | 58 | 202 | 0.9 | 0.0 | 0.00 | 0.00 | 0.21 | 94 | 1003.5 |
| 20260506234542 | 58 | 213 | 0.9 | 0.0 | 0.00 | 0.00 | 0.21 | 94 | 1003.3 |
| 20260506233023 | 59 | 285 | 0.9 | 0.0 | 0.00 | 0.00 | 0.21 | 94 | 1003.2 |
| 20260506231516 | 59 | 166 | 0.9 | 0.0 | 0.00 | 0.00 | 0.21 | 94 | 1003.2 |
| 20260506230054 | 59 | 309 | 1.7 | 0.0 | 0.00 | 0.00 | 0.21 | 94 | 1003.4 |
| 20260506224551 | 59 | 207 | 1.7 | 0.0 | 0.00 | 0.00 | 0.18 | 93 | 1003.4 |
| 20260506223029 | 59 | 181 | 2.6 | 0.0 | 0.00 | 0.00 | 0.17 | 93 | 1003.4 |
| 20260506221524 | 59 | 181 | 1.7 | 0.0 | 0.00 | 0.00 | 0.15 | 93 | 1003.6 |
| 20260506220004 | 59 | 128 | 1.7 | 0.0 | 0.00 | 0.00 | 0.14 | 93 | 1003.8 |
| 20260506214609 | 59 | 146 | 1.7 | 0.0 | 0.00 | 0.00 | 0.13 | 92 | 1003.7 |
| 20260506213038 | 59 | 191 | 1.7 | 0.0 | 0.00 | 0.00 | 0.12 | 92 | 1003.7 |
| 20260506211534 | 59 | 196 | 1.7 | 0.0 | 0.00 | 0.00 | 0.11 | 92 | 1003.8 |
| 20260506210014 | 60 | 101 | 1.7 | 0.0 | 0.00 | 0.00 | 0.11 | 92 | 1004.1 |
| 20260506204508 | 60 | 168 | 0.9 | 0.0 | 0.00 | 0.00 | 0.11 | 92 | 1004.2 |
| 20260506203048 | 60 | 184 | 1.7 | 0.0 | 0.00 | 0.00 | 0.09 | 91 | 1004.4 |
| 20260506201542 | 61 | 207 | 2.6 | 0.0 | 0.00 | 0.00 | 0.07 | 90 | 1004.2 |
| 20260506200021 | 61 | 249 | 1.7 | 0.0 | 0.00 | 0.00 | 0.06 | 89 | 1004.3 |
| 20260506194516 | 62 | 343 | 2.6 | 0.0 | 0.00 | 0.00 | 0.06 | 88 | 1004.5 |
| 20260506193114 | 62 | 174 | 2.6 | 0.0 | 0.00 | 0.00 | 0.06 | 88 | 1004.4 |
| 20260506191550 | 62 | 272 | 1.7 | 0.0 | 0.00 | 0.00 | 0.06 | 89 | 1004.4 |
| 20260506190046 | 62 | 199 | 0.0 | 0.0 | 0.00 | 0.00 | 0.05 | 89 | 1004.3 |
| 20260506184524 | 63 | 258 | 0.9 | 0.0 | 0.00 | 0.00 | 0.04 | 87 | 1004.6 |
| 20260506183023 | 63 | 220 | 1.7 | 0.0 | 0.00 | 0.00 | 0.03 | 85 | 1004.8 |
| 20260506181558 | 65 | 237 | 0.9 | 0.0 | 0.00 | 0.00 | 0.01 | 80 | 1005.0 |
| 20260506180104 | 68 | 174 | 3.5 | 0.0 | 0.00 | 0.00 | 0.00 | 70 | 1005.0 |
| 20260506174533 | 70 | 286 | 2.6 | 0.0 | 0.00 | 0.00 | 0.00 | 64 | 1004.9 |
| 20260506173028 | 70 | 174 | 3.5 | 0.0 | 0.00 | 0.00 | 0.00 | 62 | 1004.8 |
| 20260506171507 | 71 | 197 | 5.2 | 0.0 | 0.00 | 0.00 | 0.00 | 58 | 1004.9 |
| 20260506170003 | 72 | 247 | 3.5 | 0.0 | 0.00 | 0.00 | 0.00 | 59 | 1004.7 |
| 20260506164541 | 72 | 172 | 2.6 | 0.0 | 0.00 | 0.00 | 0.00 | 60 | 1005.0 |
| 20260506163045 | 70 | 182 | 3.5 | 0.0 | 0.00 | 0.00 | 0.00 | 63 | 1005.2 |
| 20260506161521 | 70 | 61 | 2.6 | 0.0 | 0.00 | 0.00 | 0.00 | 64 | 1005.5 |
| 20260506160013 | 70 | 213 | 1.7 | 0.0 | 0.00 | 0.00 | 0.00 | 66 | 1005.7 |
| 20260506154549 | 69 | 147 | 0.9 | 0.0 | 0.00 | 0.00 | 0.00 | 67 | 1006.0 |
| 20260506153046 | 69 | 110 | 0.9 | 0.0 | 0.00 | 0.00 | 0.00 | 67 | 1006.2 |
| 20260506151527 | 68 | 142 | 1.7 | 0.0 | 0.00 | 0.00 | 0.00 | 68 | 1006.6 |
| 20260506150029 | 68 | 148 | 2.6 | 0.0 | 0.00 | 0.00 | 0.00 | 68 | 1006.8 |
| 20260506144506 | 68 | 82 | 3.5 | 0.0 | 0.00 | 0.00 | 0.00 | 70 | 1006.8 |
| 20260506143008 | 67 | 135 | 4.3 | 0.0 | 0.00 | 0.00 | 0.00 | 70 | 1006.7 |
| 20260506141546 | 67 | 107 | 1.7 | 0.0 | 0.00 | 0.00 | 0.00 | 72 | 1006.6 |
| 20260506140048 | 67 | 96 | 2.6 | 0.0 | 0.00 | 0.00 | 0.00 | 71 | 1006.4 |
| 20260506134602 | 67 | 93 | 0.9 | 0.0 | 0.00 | 0.00 | 0.00 | 73 | 1006.5 |
| 20260506133023 | 66 | 126 | 1.7 | 0.0 | 0.00 | 0.00 | 0.00 | 74 | 1006.7 |
| 20260506131504 | 65 | 101 | 2.6 | 0.0 | 0.00 | 0.00 | 0.00 | 75 | 1007.0 |
| 20260506130002 | 64 | 151 | 1.7 | 0.0 | 0.00 | 0.00 | 0.00 | 76 | 1007.2 |
| 20260506124544 | 64 | 129 | 2.6 | 0.0 | 0.00 | 0.00 | 0.00 | 76 | 1007.1 |
| 20260506123046 | 64 | 111 | 1.7 | 0.0 | 0.00 | 0.00 | 0.00 | 76 | 1007.1 |
| 20260506121522 | 63 | 122 | 2.6 | 0.0 | 0.00 | 0.00 | 0.00 | 79 | 1006.9 |
| 20260506120022 | 62 | 53 | 1.7 | 0.0 | 0.00 | 0.00 | 0.00 | 79 | 1007.3 |
| 20260506114503 | 61 | 112 | 0.0 | 0.0 | 0.00 | 0.00 | 0.00 | 81 | 1007.4 |
| 20260506113059 | 61 | 127 | 1.7 | 0.0 | 0.00 | 0.00 | 0.00 | 80 | 1007.6 |
| 20260506111540 | 61 | 128 | 1.7 | 0.0 | 0.00 | 0.00 | 0.00 | 81 | 1007.8 |
| 20260506110036 | 61 | 130 | 1.7 | 0.0 | 0.00 | 0.00 | 0.00 | 80 | 1007.6 |
| 20260506104518 | 60 | 138 | 0.9 | 0.0 | 0.00 | 0.00 | 0.00 | 82 | 1007.7 |
| 20260506103025 | 59 | 131 | 0.9 | 0.0 | 0.00 | 0.00 | 0.00 | 82 | 1007.5 |
| 20260506101559 | 59 | 134 | 0.9 | 0.0 | 0.00 | 0.00 | 0.00 | 82 | 1007.5 |
| 20260506100105 | 58 | 173 | 1.7 | 0.0 | 0.00 | 0.00 | 0.00 | 82 | 1007.6 |
| 20260506094541 | 59 | 164 | 0.9 | 0.0 | 0.00 | 0.00 | 0.00 | 81 | 1007.4 |
| 20260506093040 | 59 | 169 | 0.9 | 0.0 | 0.00 | 0.00 | 0.00 | 81 | 1007.3 |
| 20260506091522 | 59 | 181 | 1.7 | 0.0 | 0.00 | 0.00 | 0.00 | 81 | 1007.5 |
| 20260506090021 | 59 | 157 | 1.7 | 0.0 | 0.00 | 0.00 | 0.00 | 80 | 1007.3 |
| 20260506084503 | 59 | 257 | 0.9 | 0.0 | 0.00 | 0.00 | 0.00 | 80 | 1007.4 |
| 20260506083005 | 59 | 180 | 0.9 | 0.0 | 0.00 | 0.00 | 0.00 | 79 | 1007.5 |
| 20260506081549 | 59 | 359 | 0.0 | 0.0 | 0.00 | 0.00 | 0.00 | 79 | 1007.4 |
| 20260506073026 | 59 | 199 | 0.9 | 0.0 | 0.00 | 0.00 | 0.00 | 78 | 1007.3 |
| 20260506071513 | 59 | 97 | 0.0 | 0.0 | 0.00 | 0.00 | 0.00 | 77 | 1007.2 |
| 20260506061538 | 61 | 278 | 0.0 | 0.0 | 0.00 | 0.00 | 0.00 | 72 | 1007.0 |